sensor_id;sensor_type;location;lat;lon;timestamp;P1;durP1;ratioP1;P2;durP2;ratioP2
12480;SDS011;6305;48.398;11.762;2022-09-23T00:00:45;21.40;;;13.10;;
12480;SDS011;6305;48.398;11.762;2022-09-23T00:03:12;26.80;;;14.33;;
12480;SDS011;6305;48.398;11.762;2022-09-23T00:06:47;22.07;;;13.60;;
12480;SDS011;6305;48.398;11.762;2022-09-23T00:11:50;21.90;;;13.50;;
12480;SDS011;6305;48.398;11.762;2022-09-23T00:14:40;26.55;;;14.05;;
12480;SDS011;6305;48.398;11.762;2022-09-23T00:17:45;24.30;;;13.73;;
12480;SDS011;6305;48.398;11.762;2022-09-23T00:20:33;24.93;;;14.23;;
12480;SDS011;6305;48.398;11.762;2022-09-23T00:23:09;23.70;;;14.50;;
12480;SDS011;6305;48.398;11.762;2022-09-23T00:26:12;22.37;;;14.57;;
12480;SDS011;6305;48.398;11.762;2022-09-23T00:29:06;27.07;;;14.40;;
12480;SDS011;6305;48.398;11.762;2022-09-23T00:32:02;27.83;;;15.07;;
12480;SDS011;6305;48.398;11.762;2022-09-23T00:34:41;26.63;;;14.50;;
12480;SDS011;6305;48.398;11.762;2022-09-23T00:37:22;24.33;;;14.90;;
12480;SDS011;6305;48.398;11.762;2022-09-23T00:46:01;27.93;;;15.37;;
12480;SDS011;6305;48.398;11.762;2022-09-23T00:49:14;30.83;;;17.10;;
12480;SDS011;6305;48.398;11.762;2022-09-23T00:51:52;31.27;;;16.70;;
12480;SDS011;6305;48.398;11.762;2022-09-23T00:54:49;29.30;;;15.87;;
12480;SDS011;6305;48.398;11.762;2022-09-23T00:58:06;26.33;;;15.17;;
12480;SDS011;6305;48.398;11.762;2022-09-23T01:01:16;27.97;;;16.03;;
12480;SDS011;6305;48.398;11.762;2022-09-23T01:03:52;29.40;;;16.30;;
12480;SDS011;6305;48.398;11.762;2022-09-23T01:06:40;29.70;;;15.73;;
12480;SDS011;6305;48.398;11.762;2022-09-23T01:09:37;28.87;;;15.63;;
12480;SDS011;6305;48.398;11.762;2022-09-23T01:12:11;26.93;;;15.23;;
12480;SDS011;6305;48.398;11.762;2022-09-23T01:15:09;30.67;;;16.40;;
12480;SDS011;6305;48.398;11.762;2022-09-23T01:18:12;27.20;;;15.93;;
12480;SDS011;6305;48.398;11.762;2022-09-23T01:21:14;27.53;;;15.47;;
12480;SDS011;6305;48.398;11.762;2022-09-23T01:27:25;30.33;;;16.03;;
12480;SDS011;6305;48.398;11.762;2022-09-23T01:30:43;30.93;;;16.53;;
12480;SDS011;6305;48.398;11.762;2022-09-23T01:33:23;26.67;;;15.97;;
12480;SDS011;6305;48.398;11.762;2022-09-23T01:36:05;27.97;;;16.00;;
12480;SDS011;6305;48.398;11.762;2022-09-23T01:38:49;29.00;;;15.67;;
12480;SDS011;6305;48.398;11.762;2022-09-23T01:41:46;32.43;;;17.70;;
12480;SDS011;6305;48.398;11.762;2022-09-23T01:44:53;33.30;;;18.10;;
12480;SDS011;6305;48.398;11.762;2022-09-23T01:47:59;30.63;;;17.73;;
12480;SDS011;6305;48.398;11.762;2022-09-23T01:50:51;35.23;;;17.30;;
12480;SDS011;6305;48.398;11.762;2022-09-23T01:56:29;33.07;;;18.43;;
12480;SDS011;6305;48.398;11.762;2022-09-23T01:59:04;36.93;;;18.83;;
12480;SDS011;6305;48.398;11.762;2022-09-23T02:02:00;30.93;;;17.20;;
12480;SDS011;6305;48.398;11.762;2022-09-23T02:05:18;36.10;;;17.97;;
12480;SDS011;6305;48.398;11.762;2022-09-23T02:08:10;33.77;;;17.87;;
12480;SDS011;6305;48.398;11.762;2022-09-23T02:11:49;35.47;;;18.70;;
12480;SDS011;6305;48.398;11.762;2022-09-23T02:13:56;32.97;;;18.70;;
12480;SDS011;6305;48.398;11.762;2022-09-23T02:16:49;36.47;;;19.00;;
12480;SDS011;6305;48.398;11.762;2022-09-23T02:19:21;37.90;;;18.80;;
12480;SDS011;6305;48.398;11.762;2022-09-23T02:25:46;35.03;;;18.77;;
12480;SDS011;6305;48.398;11.762;2022-09-23T02:31:58;34.87;;;18.93;;
12480;SDS011;6305;48.398;11.762;2022-09-23T02:34:48;36.43;;;20.37;;
12480;SDS011;6305;48.398;11.762;2022-09-23T02:41:24;42.33;;;20.87;;
12480;SDS011;6305;48.398;11.762;2022-09-23T02:44:23;37.00;;;20.20;;
12480;SDS011;6305;48.398;11.762;2022-09-23T02:47:16;38.30;;;19.53;;
12480;SDS011;6305;48.398;11.762;2022-09-23T02:49:55;39.43;;;20.87;;
12480;SDS011;6305;48.398;11.762;2022-09-23T02:55:57;39.83;;;19.97;;
12480;SDS011;6305;48.398;11.762;2022-09-23T02:58:52;44.90;;;21.00;;
12480;SDS011;6305;48.398;11.762;2022-09-23T03:02:09;43.93;;;22.63;;
12480;SDS011;6305;48.398;11.762;2022-09-23T03:05:12;37.57;;;20.43;;
12480;SDS011;6305;48.398;11.762;2022-09-23T03:07:48;41.43;;;22.20;;
12480;SDS011;6305;48.398;11.762;2022-09-23T03:10:27;43.80;;;20.43;;
12480;SDS011;6305;48.398;11.762;2022-09-23T03:13:02;44.17;;;21.67;;
12480;SDS011;6305;48.398;11.762;2022-09-23T03:15:42;41.87;;;21.70;;
12480;SDS011;6305;48.398;11.762;2022-09-23T03:18:16;47.67;;;22.47;;
12480;SDS011;6305;48.398;11.762;2022-09-23T03:20:47;42.30;;;21.80;;
12480;SDS011;6305;48.398;11.762;2022-09-23T03:23:17;48.17;;;21.93;;
12480;SDS011;6305;48.398;11.762;2022-09-23T03:25:49;47.77;;;23.00;;
12480;SDS011;6305;48.398;11.762;2022-09-23T03:28:18;49.20;;;23.10;;
12480;SDS011;6305;48.398;11.762;2022-09-23T03:30:48;46.63;;;22.90;;
12480;SDS011;6305;48.398;11.762;2022-09-23T03:33:16;48.77;;;23.50;;
12480;SDS011;6305;48.398;11.762;2022-09-23T03:35:47;49.90;;;23.37;;
12480;SDS011;6305;48.398;11.762;2022-09-23T03:38:35;45.50;;;22.90;;
12480;SDS011;6305;48.398;11.762;2022-09-23T03:41:07;49.63;;;23.77;;
12480;SDS011;6305;48.398;11.762;2022-09-23T03:43:35;46.67;;;22.67;;
12480;SDS011;6305;48.398;11.762;2022-09-23T03:46:04;46.40;;;22.77;;
12480;SDS011;6305;48.398;11.762;2022-09-23T03:48:32;43.07;;;22.93;;
12480;SDS011;6305;48.398;11.762;2022-09-23T03:50:59;45.47;;;22.53;;
12480;SDS011;6305;48.398;11.762;2022-09-23T03:53:33;47.80;;;23.40;;
12480;SDS011;6305;48.398;11.762;2022-09-23T03:56:00;51.03;;;25.07;;
12480;SDS011;6305;48.398;11.762;2022-09-23T03:58:27;49.80;;;23.63;;
12480;SDS011;6305;48.398;11.762;2022-09-23T04:00:53;54.40;;;25.83;;
12480;SDS011;6305;48.398;11.762;2022-09-23T04:03:23;50.70;;;23.87;;
12480;SDS011;6305;48.398;11.762;2022-09-23T04:05:53;47.37;;;23.17;;
12480;SDS011;6305;48.398;11.762;2022-09-23T04:08:19;48.50;;;23.23;;
12480;SDS011;6305;48.398;11.762;2022-09-23T04:10:46;50.77;;;24.47;;
12480;SDS011;6305;48.398;11.762;2022-09-23T04:13:14;51.77;;;24.93;;
12480;SDS011;6305;48.398;11.762;2022-09-23T04:15:41;49.30;;;24.07;;
12480;SDS011;6305;48.398;11.762;2022-09-23T04:18:08;49.67;;;24.10;;
12480;SDS011;6305;48.398;11.762;2022-09-23T04:20:36;49.67;;;23.97;;
12480;SDS011;6305;48.398;11.762;2022-09-23T04:23:04;55.30;;;24.97;;
12480;SDS011;6305;48.398;11.762;2022-09-23T04:25:30;54.57;;;25.67;;
12480;SDS011;6305;48.398;11.762;2022-09-23T04:27:57;53.03;;;25.33;;
12480;SDS011;6305;48.398;11.762;2022-09-23T04:30:24;50.47;;;25.00;;
12480;SDS011;6305;48.398;11.762;2022-09-23T04:32:50;50.83;;;24.97;;
12480;SDS011;6305;48.398;11.762;2022-09-23T04:35:18;57.67;;;25.77;;
12480;SDS011;6305;48.398;11.762;2022-09-23T04:37:47;54.87;;;24.33;;
12480;SDS011;6305;48.398;11.762;2022-09-23T04:40:14;54.63;;;25.80;;
12480;SDS011;6305;48.398;11.762;2022-09-23T04:42:41;54.43;;;25.93;;
12480;SDS011;6305;48.398;11.762;2022-09-23T04:45:07;49.37;;;24.90;;
12480;SDS011;6305;48.398;11.762;2022-09-23T04:47:35;51.10;;;25.27;;
12480;SDS011;6305;48.398;11.762;2022-09-23T04:50:02;51.03;;;25.07;;
12480;SDS011;6305;48.398;11.762;2022-09-23T04:52:28;53.80;;;25.23;;
12480;SDS011;6305;48.398;11.762;2022-09-23T04:54:57;56.17;;;27.03;;
12480;SDS011;6305;48.398;11.762;2022-09-23T04:57:24;50.23;;;25.63;;
12480;SDS011;6305;48.398;11.762;2022-09-23T04:59:50;49.73;;;25.17;;
12480;SDS011;6305;48.398;11.762;2022-09-23T05:02:20;54.23;;;26.37;;
12480;SDS011;6305;48.398;11.762;2022-09-23T05:04:46;56.37;;;26.63;;
12480;SDS011;6305;48.398;11.762;2022-09-23T05:07:13;61.43;;;27.23;;
12480;SDS011;6305;48.398;11.762;2022-09-23T05:09:41;55.97;;;26.53;;
12480;SDS011;6305;48.398;11.762;2022-09-23T05:12:09;58.67;;;27.37;;
12480;SDS011;6305;48.398;11.762;2022-09-23T05:14:36;58.43;;;27.57;;
12480;SDS011;6305;48.398;11.762;2022-09-23T05:17:03;60.13;;;27.27;;
12480;SDS011;6305;48.398;11.762;2022-09-23T05:19:30;53.37;;;25.90;;
12480;SDS011;6305;48.398;11.762;2022-09-23T05:21:56;61.07;;;27.70;;
12480;SDS011;6305;48.398;11.762;2022-09-23T05:24:23;64.37;;;29.37;;
12480;SDS011;6305;48.398;11.762;2022-09-23T05:26:50;60.07;;;28.23;;
12480;SDS011;6305;48.398;11.762;2022-09-23T05:29:19;62.27;;;28.87;;
12480;SDS011;6305;48.398;11.762;2022-09-23T05:31:46;65.47;;;28.37;;
12480;SDS011;6305;48.398;11.762;2022-09-23T05:34:12;62.53;;;29.20;;
12480;SDS011;6305;48.398;11.762;2022-09-23T05:36:39;64.50;;;29.77;;
12480;SDS011;6305;48.398;11.762;2022-09-23T05:39:06;65.53;;;29.10;;
12480;SDS011;6305;48.398;11.762;2022-09-23T05:41:33;64.77;;;30.87;;
12480;SDS011;6305;48.398;11.762;2022-09-23T05:44:00;66.93;;;31.10;;
12480;SDS011;6305;48.398;11.762;2022-09-23T05:46:28;71.20;;;32.20;;
12480;SDS011;6305;48.398;11.762;2022-09-23T05:48:57;66.90;;;32.13;;
12480;SDS011;6305;48.398;11.762;2022-09-23T05:51:25;74.43;;;33.50;;
12480;SDS011;6305;48.398;11.762;2022-09-23T05:53:53;77.23;;;35.13;;
12480;SDS011;6305;48.398;11.762;2022-09-23T05:56:22;75.53;;;33.43;;
12480;SDS011;6305;48.398;11.762;2022-09-23T05:58:50;76.55;;;32.80;;
12480;SDS011;6305;48.398;11.762;2022-09-23T06:01:19;73.30;;;32.17;;
12480;SDS011;6305;48.398;11.762;2022-09-23T06:03:50;61.42;;;30.00;;
12480;SDS011;6305;48.398;11.762;2022-09-23T06:06:18;58.78;;;28.58;;
12480;SDS011;6305;48.398;11.762;2022-09-23T06:08:50;58.78;;;26.58;;
12480;SDS011;6305;48.398;11.762;2022-09-23T06:11:17;53.05;;;25.48;;
12480;SDS011;6305;48.398;11.762;2022-09-23T06:13:45;55.10;;;25.65;;
12480;SDS011;6305;48.398;11.762;2022-09-23T06:16:13;50.60;;;24.90;;
12480;SDS011;6305;48.398;11.762;2022-09-23T06:18:41;53.05;;;23.83;;
12480;SDS011;6305;48.398;11.762;2022-09-23T06:21:10;46.70;;;23.30;;
12480;SDS011;6305;48.398;11.762;2022-09-23T06:23:38;55.95;;;25.77;;
12480;SDS011;6305;48.398;11.762;2022-09-23T06:26:05;54.60;;;25.20;;
12480;SDS011;6305;48.398;11.762;2022-09-23T06:28:34;51.80;;;25.35;;
12480;SDS011;6305;48.398;11.762;2022-09-23T06:31:02;52.92;;;24.50;;
12480;SDS011;6305;48.398;11.762;2022-09-23T06:33:32;51.13;;;26.17;;
12480;SDS011;6305;48.398;11.762;2022-09-23T06:35:59;72.78;;;26.45;;
12480;SDS011;6305;48.398;11.762;2022-09-23T06:38:29;37.35;;;22.70;;
12480;SDS011;6305;48.398;11.762;2022-09-23T06:40:58;31.02;;;21.08;;
12480;SDS011;6305;48.398;11.762;2022-09-23T06:43:26;23.40;;;17.35;;
12480;SDS011;6305;48.398;11.762;2022-09-23T06:45:52;22.05;;;16.00;;
12480;SDS011;6305;48.398;11.762;2022-09-23T06:48:20;16.63;;;14.55;;
12480;SDS011;6305;48.398;11.762;2022-09-23T06:50:48;14.40;;;12.68;;
12480;SDS011;6305;48.398;11.762;2022-09-23T06:53:15;12.85;;;11.50;;
12480;SDS011;6305;48.398;11.762;2022-09-23T06:55:43;10.27;;;9.25;;
12480;SDS011;6305;48.398;11.762;2022-09-23T06:58:10;8.90;;;8.00;;
12480;SDS011;6305;48.398;11.762;2022-09-23T07:00:37;7.45;;;6.75;;
12480;SDS011;6305;48.398;11.762;2022-09-23T07:03:05;7.43;;;6.68;;
12480;SDS011;6305;48.398;11.762;2022-09-23T07:05:32;7.70;;;6.90;;
12480;SDS011;6305;48.398;11.762;2022-09-23T07:07:59;7.13;;;6.38;;
12480;SDS011;6305;48.398;11.762;2022-09-23T07:10:27;7.65;;;6.88;;
12480;SDS011;6305;48.398;11.762;2022-09-23T07:12:56;8.13;;;6.72;;
12480;SDS011;6305;48.398;11.762;2022-09-23T07:15:26;7.50;;;6.78;;
12480;SDS011;6305;48.398;11.762;2022-09-23T07:17:52;6.97;;;6.38;;
12480;SDS011;6305;48.398;11.762;2022-09-23T07:20:19;8.90;;;6.50;;
12480;SDS011;6305;48.398;11.762;2022-09-23T07:22:47;6.57;;;5.97;;
12480;SDS011;6305;48.398;11.762;2022-09-23T07:25:15;7.35;;;6.13;;
12480;SDS011;6305;48.398;11.762;2022-09-23T07:27:41;6.47;;;5.85;;
12480;SDS011;6305;48.398;11.762;2022-09-23T07:30:10;6.68;;;6.07;;
12480;SDS011;6305;48.398;11.762;2022-09-23T07:32:38;6.28;;;5.70;;
12480;SDS011;6305;48.398;11.762;2022-09-23T07:35:05;5.90;;;5.22;;
12480;SDS011;6305;48.398;11.762;2022-09-23T07:37:32;5.75;;;5.13;;
12480;SDS011;6305;48.398;11.762;2022-09-23T07:40:00;5.80;;;5.20;;
12480;SDS011;6305;48.398;11.762;2022-09-23T07:42:27;5.72;;;5.20;;
12480;SDS011;6305;48.398;11.762;2022-09-23T07:44:53;6.15;;;4.63;;
12480;SDS011;6305;48.398;11.762;2022-09-23T07:47:22;5.32;;;4.82;;
12480;SDS011;6305;48.398;11.762;2022-09-23T07:49:49;4.70;;;4.30;;
12480;SDS011;6305;48.398;11.762;2022-09-23T07:52:18;4.85;;;4.45;;
12480;SDS011;6305;48.398;11.762;2022-09-23T07:54:45;7.03;;;5.00;;
12480;SDS011;6305;48.398;11.762;2022-09-23T07:57:11;5.97;;;5.10;;
12480;SDS011;6305;48.398;11.762;2022-09-23T07:59:38;5.53;;;5.03;;
12480;SDS011;6305;48.398;11.762;2022-09-23T08:02:07;5.38;;;4.88;;
12480;SDS011;6305;48.398;11.762;2022-09-23T08:04:36;4.75;;;4.25;;
12480;SDS011;6305;48.398;11.762;2022-09-23T08:07:04;7.20;;;4.97;;
12480;SDS011;6305;48.398;11.762;2022-09-23T08:09:31;5.20;;;4.70;;
12480;SDS011;6305;48.398;11.762;2022-09-23T08:12:03;5.43;;;4.80;;
12480;SDS011;6305;48.398;11.762;2022-09-23T08:14:30;5.60;;;5.03;;
12480;SDS011;6305;48.398;11.762;2022-09-23T08:16:57;6.95;;;5.50;;
12480;SDS011;6305;48.398;11.762;2022-09-23T08:19:24;5.50;;;5.03;;
12480;SDS011;6305;48.398;11.762;2022-09-23T08:21:52;7.65;;;5.20;;
12480;SDS011;6305;48.398;11.762;2022-09-23T08:24:19;7.00;;;5.55;;
12480;SDS011;6305;48.398;11.762;2022-09-23T08:26:48;6.20;;;5.57;;
12480;SDS011;6305;48.398;11.762;2022-09-23T08:29:17;6.32;;;5.38;;
12480;SDS011;6305;48.398;11.762;2022-09-23T08:31:45;5.82;;;5.32;;
12480;SDS011;6305;48.398;11.762;2022-09-23T08:34:12;5.80;;;5.20;;
12480;SDS011;6305;48.398;11.762;2022-09-23T08:36:39;5.78;;;4.85;;
12480;SDS011;6305;48.398;11.762;2022-09-23T08:39:07;5.43;;;4.97;;
12480;SDS011;6305;48.398;11.762;2022-09-23T08:41:38;5.30;;;4.43;;
12480;SDS011;6305;48.398;11.762;2022-09-23T08:44:11;7.20;;;5.47;;
12480;SDS011;6305;48.398;11.762;2022-09-23T08:46:42;5.90;;;5.30;;
12480;SDS011;6305;48.398;11.762;2022-09-23T08:49:21;6.05;;;5.15;;
12480;SDS011;6305;48.398;11.762;2022-09-23T08:51:50;5.18;;;4.60;;
12480;SDS011;6305;48.398;11.762;2022-09-23T08:54:21;5.28;;;4.78;;
12480;SDS011;6305;48.398;11.762;2022-09-23T08:56:50;5.35;;;4.78;;
12480;SDS011;6305;48.398;11.762;2022-09-23T08:59:18;4.75;;;4.35;;
12480;SDS011;6305;48.398;11.762;2022-09-23T09:01:51;5.13;;;4.63;;
12480;SDS011;6305;48.398;11.762;2022-09-23T09:04:21;4.85;;;4.45;;
12480;SDS011;6305;48.398;11.762;2022-09-23T09:06:52;5.30;;;4.70;;
12480;SDS011;6305;48.398;11.762;2022-09-23T09:09:25;5.00;;;4.50;;
12480;SDS011;6305;48.398;11.762;2022-09-23T09:12:00;7.00;;;5.10;;
12480;SDS011;6305;48.398;11.762;2022-09-23T09:14:34;4.95;;;4.38;;
12480;SDS011;6305;48.398;11.762;2022-09-23T09:17:03;5.20;;;4.70;;
12480;SDS011;6305;48.398;11.762;2022-09-23T09:19:41;4.45;;;4.05;;
12480;SDS011;6305;48.398;11.762;2022-09-23T09:22:19;4.63;;;4.20;;
12480;SDS011;6305;48.398;11.762;2022-09-23T09:24:50;5.45;;;4.72;;
12480;SDS011;6305;48.398;11.762;2022-09-23T09:27:25;4.30;;;3.90;;
12480;SDS011;6305;48.398;11.762;2022-09-23T09:29:52;4.70;;;4.30;;
12480;SDS011;6305;48.398;11.762;2022-09-23T09:32:22;4.35;;;3.95;;
12480;SDS011;6305;48.398;11.762;2022-09-23T09:35:04;5.63;;;4.20;;
12480;SDS011;6305;48.398;11.762;2022-09-23T09:37:42;4.10;;;3.50;;
12480;SDS011;6305;48.398;11.762;2022-09-23T09:40:13;4.25;;;3.80;;
12480;SDS011;6305;48.398;11.762;2022-09-23T09:42:44;4.63;;;3.65;;
12480;SDS011;6305;48.398;11.762;2022-09-23T09:45:14;4.65;;;4.18;;
12480;SDS011;6305;48.398;11.762;2022-09-23T09:47:45;4.50;;;4.20;;
12480;SDS011;6305;48.398;11.762;2022-09-23T09:50:17;4.05;;;3.75;;
12480;SDS011;6305;48.398;11.762;2022-09-23T09:53:13;4.57;;;3.95;;
12480;SDS011;6305;48.398;11.762;2022-09-23T09:55:42;4.00;;;3.60;;
12480;SDS011;6305;48.398;11.762;2022-09-23T09:58:12;4.22;;;3.83;;
12480;SDS011;6305;48.398;11.762;2022-09-23T10:00:41;3.78;;;3.28;;
12480;SDS011;6305;48.398;11.762;2022-09-23T10:03:23;4.60;;;3.78;;
12480;SDS011;6305;48.398;11.762;2022-09-23T10:05:54;3.55;;;3.25;;
12480;SDS011;6305;48.398;11.762;2022-09-23T10:08:26;3.67;;;3.38;;
12480;SDS011;6305;48.398;11.762;2022-09-23T10:11:00;5.07;;;4.03;;
12480;SDS011;6305;48.398;11.762;2022-09-23T10:13:28;3.50;;;3.20;;
12480;SDS011;6305;48.398;11.762;2022-09-23T10:15:55;5.38;;;3.80;;
12480;SDS011;6305;48.398;11.762;2022-09-23T10:18:25;3.97;;;3.67;;
12480;SDS011;6305;48.398;11.762;2022-09-23T10:20:59;5.82;;;3.75;;
12480;SDS011;6305;48.398;11.762;2022-09-23T10:23:31;5.22;;;4.40;;
12480;SDS011;6305;48.398;11.762;2022-09-23T10:26:00;5.35;;;3.60;;
12480;SDS011;6305;48.398;11.762;2022-09-23T10:28:40;4.07;;;3.67;;
12480;SDS011;6305;48.398;11.762;2022-09-23T10:31:12;5.57;;;4.28;;
12480;SDS011;6305;48.398;11.762;2022-09-23T10:33:40;5.72;;;4.30;;
12480;SDS011;6305;48.398;11.762;2022-09-23T10:36:12;4.60;;;4.15;;
12480;SDS011;6305;48.398;11.762;2022-09-23T10:38:40;6.40;;;4.32;;
12480;SDS011;6305;48.398;11.762;2022-09-23T10:41:11;5.03;;;4.50;;
12480;SDS011;6305;48.398;11.762;2022-09-23T10:44:03;4.43;;;4.03;;
12480;SDS011;6305;48.398;11.762;2022-09-23T10:47:05;4.40;;;3.90;;
12480;SDS011;6305;48.398;11.762;2022-09-23T10:49:44;4.78;;;4.38;;
12480;SDS011;6305;48.398;11.762;2022-09-23T10:52:35;4.63;;;3.67;;
12480;SDS011;6305;48.398;11.762;2022-09-23T10:55:26;5.20;;;3.80;;
12480;SDS011;6305;48.398;11.762;2022-09-23T10:58:16;3.97;;;3.65;;
12480;SDS011;6305;48.398;11.762;2022-09-23T11:00:55;4.28;;;3.92;;
12480;SDS011;6305;48.398;11.762;2022-09-23T11:03:44;3.70;;;3.40;;
12480;SDS011;6305;48.398;11.762;2022-09-23T11:06:23;3.85;;;3.47;;
12480;SDS011;6305;48.398;11.762;2022-09-23T11:09:03;3.65;;;3.35;;
12480;SDS011;6305;48.398;11.762;2022-09-23T11:11:46;4.25;;;3.10;;
12480;SDS011;6305;48.398;11.762;2022-09-23T11:14:33;5.40;;;4.00;;
12480;SDS011;6305;48.398;11.762;2022-09-23T11:23:08;3.60;;;3.30;;
12480;SDS011;6305;48.398;11.762;2022-09-23T11:25:47;3.33;;;3.03;;
12480;SDS011;6305;48.398;11.762;2022-09-23T11:28:25;3.90;;;3.50;;
12480;SDS011;6305;48.398;11.762;2022-09-23T11:31:12;4.93;;;3.10;;
12480;SDS011;6305;48.398;11.762;2022-09-23T11:33:50;3.47;;;3.15;;
12480;SDS011;6305;48.398;11.762;2022-09-23T11:36:27;3.42;;;3.08;;
12480;SDS011;6305;48.398;11.762;2022-09-23T11:38:58;3.47;;;3.20;;
12480;SDS011;6305;48.398;11.762;2022-09-23T11:41:32;4.20;;;3.17;;
12480;SDS011;6305;48.398;11.762;2022-09-23T11:44:02;3.40;;;3.10;;
12480;SDS011;6305;48.398;11.762;2022-09-23T11:46:37;3.55;;;3.25;;
12480;SDS011;6305;48.398;11.762;2022-09-23T11:49:08;3.35;;;3.08;;
12480;SDS011;6305;48.398;11.762;2022-09-23T11:51:41;3.10;;;2.83;;
12480;SDS011;6305;48.398;11.762;2022-09-23T11:54:17;3.58;;;2.65;;
12480;SDS011;6305;48.398;11.762;2022-09-23T11:56:49;2.63;;;2.42;;
12480;SDS011;6305;48.398;11.762;2022-09-23T11:59:22;3.30;;;2.38;;
12480;SDS011;6305;48.398;11.762;2022-09-23T12:01:59;2.58;;;2.38;;
12480;SDS011;6305;48.398;11.762;2022-09-23T12:04:30;2.53;;;2.33;;
12480;SDS011;6305;48.398;11.762;2022-09-23T12:06:59;2.92;;;2.65;;
12480;SDS011;6305;48.398;11.762;2022-09-23T12:09:36;2.92;;;2.38;;
12480;SDS011;6305;48.398;11.762;2022-09-23T12:12:10;2.90;;;2.60;;
12480;SDS011;6305;48.398;11.762;2022-09-23T12:14:48;2.58;;;2.30;;
12480;SDS011;6305;48.398;11.762;2022-09-23T12:17:26;2.60;;;2.40;;
12480;SDS011;6305;48.398;11.762;2022-09-23T12:20:18;3.58;;;2.60;;
12480;SDS011;6305;48.398;11.762;2022-09-23T12:23:00;2.90;;;2.60;;
12480;SDS011;6305;48.398;11.762;2022-09-23T12:25:39;4.53;;;2.70;;
12480;SDS011;6305;48.398;11.762;2022-09-23T12:28:11;2.90;;;2.60;;
12480;SDS011;6305;48.398;11.762;2022-09-23T12:30:43;3.38;;;3.08;;
12480;SDS011;6305;48.398;11.762;2022-09-23T12:33:18;4.05;;;2.70;;
12480;SDS011;6305;48.398;11.762;2022-09-23T12:35:49;3.00;;;2.70;;
12480;SDS011;6305;48.398;11.762;2022-09-23T12:38:18;2.65;;;2.45;;
12480;SDS011;6305;48.398;11.762;2022-09-23T12:40:49;3.00;;;2.53;;
12480;SDS011;6305;48.398;11.762;2022-09-23T12:43:17;3.28;;;2.53;;
12480;SDS011;6305;48.398;11.762;2022-09-23T12:45:53;2.85;;;2.55;;
12480;SDS011;6305;48.398;11.762;2022-09-23T12:48:58;3.00;;;2.80;;
12480;SDS011;6305;48.398;11.762;2022-09-23T12:51:26;4.47;;;2.83;;
12480;SDS011;6305;48.398;11.762;2022-09-23T12:53:58;3.72;;;2.63;;
12480;SDS011;6305;48.398;11.762;2022-09-23T12:59:55;5.15;;;2.90;;
12480;SDS011;6305;48.398;11.762;2022-09-23T13:02:25;3.40;;;3.10;;
12480;SDS011;6305;48.398;11.762;2022-09-23T13:05:17;4.50;;;3.50;;
12480;SDS011;6305;48.398;11.762;2022-09-23T13:08:04;3.60;;;2.80;;
12480;SDS011;6305;48.398;11.762;2022-09-23T13:10:36;3.10;;;2.80;;
12480;SDS011;6305;48.398;11.762;2022-09-23T13:13:06;3.20;;;2.75;;
12480;SDS011;6305;48.398;11.762;2022-09-23T13:15:41;3.20;;;2.90;;
12480;SDS011;6305;48.398;11.762;2022-09-23T13:21:16;3.38;;;2.80;;
12480;SDS011;6305;48.398;11.762;2022-09-23T13:26:43;4.97;;;2.70;;
12480;SDS011;6305;48.398;11.762;2022-09-23T13:29:12;2.80;;;2.60;;
12480;SDS011;6305;48.398;11.762;2022-09-23T13:31:44;2.50;;;2.30;;
12480;SDS011;6305;48.398;11.762;2022-09-23T13:34:12;3.92;;;2.97;;
12480;SDS011;6305;48.398;11.762;2022-09-23T13:36:46;3.65;;;3.03;;
12480;SDS011;6305;48.398;11.762;2022-09-23T13:39:13;3.20;;;2.75;;
12480;SDS011;6305;48.398;11.762;2022-09-23T13:41:41;3.15;;;2.50;;
12480;SDS011;6305;48.398;11.762;2022-09-23T13:44:11;3.00;;;2.50;;
12480;SDS011;6305;48.398;11.762;2022-09-23T13:46:43;3.03;;;2.70;;
12480;SDS011;6305;48.398;11.762;2022-09-23T13:49:19;2.78;;;2.38;;
12480;SDS011;6305;48.398;11.762;2022-09-23T13:51:50;3.33;;;2.38;;
12480;SDS011;6305;48.398;11.762;2022-09-23T13:54:27;2.40;;;2.15;;
12480;SDS011;6305;48.398;11.762;2022-09-23T13:56:56;3.10;;;2.40;;
12480;SDS011;6305;48.398;11.762;2022-09-23T13:59:24;3.10;;;2.40;;
12480;SDS011;6305;48.398;11.762;2022-09-23T14:02:01;3.97;;;2.40;;
12480;SDS011;6305;48.398;11.762;2022-09-23T14:04:28;2.42;;;2.22;;
12480;SDS011;6305;48.398;11.762;2022-09-23T14:06:56;2.85;;;2.47;;
12480;SDS011;6305;48.398;11.762;2022-09-23T14:09:23;2.15;;;1.90;;
12480;SDS011;6305;48.398;11.762;2022-09-23T14:11:52;3.17;;;2.33;;
12480;SDS011;6305;48.398;11.762;2022-09-23T14:14:21;2.70;;;2.50;;
12480;SDS011;6305;48.398;11.762;2022-09-23T14:16:49;5.13;;;2.40;;
12480;SDS011;6305;48.398;11.762;2022-09-23T14:19:17;3.55;;;2.50;;
12480;SDS011;6305;48.398;11.762;2022-09-23T14:21:47;2.60;;;2.20;;
12480;SDS011;6305;48.398;11.762;2022-09-23T14:24:17;2.55;;;2.17;;
12480;SDS011;6305;48.398;11.762;2022-09-23T14:26:45;2.33;;;2.05;;
12480;SDS011;6305;48.398;11.762;2022-09-23T14:29:15;3.25;;;2.30;;
12480;SDS011;6305;48.398;11.762;2022-09-23T14:31:43;3.05;;;2.45;;
12480;SDS011;6305;48.398;11.762;2022-09-23T14:34:39;2.85;;;2.28;;
12480;SDS011;6305;48.398;11.762;2022-09-23T14:37:10;2.55;;;2.35;;
12480;SDS011;6305;48.398;11.762;2022-09-23T14:40:03;2.22;;;1.98;;
12480;SDS011;6305;48.398;11.762;2022-09-23T14:42:37;3.25;;;2.70;;
12480;SDS011;6305;48.398;11.762;2022-09-23T14:45:08;3.42;;;2.50;;
12480;SDS011;6305;48.398;11.762;2022-09-23T14:47:44;5.18;;;2.50;;
12480;SDS011;6305;48.398;11.762;2022-09-23T14:50:14;3.03;;;2.60;;
12480;SDS011;6305;48.398;11.762;2022-09-23T14:53:00;3.25;;;2.35;;
12480;SDS011;6305;48.398;11.762;2022-09-23T14:55:29;3.90;;;2.67;;
12480;SDS011;6305;48.398;11.762;2022-09-23T14:58:00;4.53;;;2.80;;
12480;SDS011;6305;48.398;11.762;2022-09-23T15:00:29;3.83;;;2.67;;
12480;SDS011;6305;48.398;11.762;2022-09-23T15:02:56;4.75;;;2.60;;
12480;SDS011;6305;48.398;11.762;2022-09-23T15:05:29;2.92;;;2.40;;
12480;SDS011;6305;48.398;11.762;2022-09-23T15:08:04;2.88;;;2.53;;
12480;SDS011;6305;48.398;11.762;2022-09-23T15:10:33;2.80;;;2.20;;
12480;SDS011;6305;48.398;11.762;2022-09-23T15:13:04;2.80;;;2.50;;
12480;SDS011;6305;48.398;11.762;2022-09-23T15:15:33;2.95;;;2.67;;
12480;SDS011;6305;48.398;11.762;2022-09-23T15:18:01;2.97;;;2.67;;
12480;SDS011;6305;48.398;11.762;2022-09-23T15:20:30;3.78;;;3.03;;
12480;SDS011;6305;48.398;11.762;2022-09-23T15:22:57;4.82;;;3.03;;
12480;SDS011;6305;48.398;11.762;2022-09-23T15:25:24;3.53;;;2.95;;
12480;SDS011;6305;48.398;11.762;2022-09-23T15:27:57;4.38;;;2.92;;
12480;SDS011;6305;48.398;11.762;2022-09-23T15:30:27;3.33;;;2.78;;
12480;SDS011;6305;48.398;11.762;2022-09-23T15:32:54;6.82;;;3.35;;
12480;SDS011;6305;48.398;11.762;2022-09-23T15:35:22;3.53;;;3.08;;
12480;SDS011;6305;48.398;11.762;2022-09-23T15:37:50;5.22;;;2.92;;
12480;SDS011;6305;48.398;11.762;2022-09-23T15:40:21;3.80;;;2.78;;
12480;SDS011;6305;48.398;11.762;2022-09-23T15:42:49;3.60;;;2.90;;
12480;SDS011;6305;48.398;11.762;2022-09-23T15:45:26;3.28;;;2.97;;
12480;SDS011;6305;48.398;11.762;2022-09-23T15:47:57;4.57;;;3.05;;
12480;SDS011;6305;48.398;11.762;2022-09-23T15:50:26;4.30;;;3.00;;
12480;SDS011;6305;48.398;11.762;2022-09-23T15:52:55;4.07;;;2.80;;
12480;SDS011;6305;48.398;11.762;2022-09-23T15:55:22;3.13;;;2.70;;
12480;SDS011;6305;48.398;11.762;2022-09-23T15:57:49;3.95;;;2.67;;
12480;SDS011;6305;48.398;11.762;2022-09-23T16:00:16;4.10;;;2.80;;
12480;SDS011;6305;48.398;11.762;2022-09-23T16:02:45;3.45;;;2.80;;